Time;durP1;ratioP1;P1;durP2;ratioP2;P2;SDS_P1;SDS_P2;PMS_P1;PMS_P2;Temp;Humidity;BMP_temperature;BMP_pressure;BME280_temperature;BME280_humidity;BME280_pressure;Samples;Min_cycle;Max_cycle;Signal;HPM_P1;HPM_P2
2022/01/16 00:00:14;;;;;;;19.90;7.45;;;2.30;99.90;;;;;;4856850;29;20394;-65
2022/01/16 00:05:23;;;;;;;31.58;8.57;;;2.10;99.90;;;;;;4855752;29;20068;-65
2022/01/16 00:07:48;;;;;;;28.23;9.90;;;2.00;99.90;;;;;;4855076;29;20406;-65
2022/01/16 00:10:16;;;;;;;27.30;10.90;;;2.00;99.90;;;;;;4851537;29;20044;-65
2022/01/16 00:12:47;;;;;;;29.88;10.77;;;2.00;99.90;;;;;;4863380;29;20039;-65
2022/01/16 00:15:12;;;;;;;38.92;10.70;;;1.90;99.90;;;;;;4854897;29;20052;-65
2022/01/16 00:17:48;;;;;;;40.22;11.32;;;2.00;99.90;;;;;;4849940;29;20041;-65
2022/01/16 00:20:16;;;;;;;36.13;12.57;;;1.80;99.90;;;;;;4838921;29;20040;-65
2022/01/16 00:22:44;;;;;;;33.35;11.20;;;1.80;99.90;;;;;;4849993;29;20138;-65
2022/01/16 00:25:09;;;;;;;32.45;11.13;;;1.70;99.90;;;;;;4861676;29;20112;-65
2022/01/16 00:27:35;;;;;;;30.52;11.63;;;1.70;99.90;;;;;;4862656;29;20356;-65
2022/01/16 00:30:00;;;;;;;34.05;11.98;;;1.60;99.90;;;;;;4838425;29;20726;-65
2022/01/16 00:32:26;;;;;;;34.15;11.90;;;1.50;99.90;;;;;;4860292;29;20042;-66
2022/01/16 00:34:51;;;;;;;33.28;11.60;;;1.60;99.90;;;;;;4857034;29;20037;-65
2022/01/16 00:37:17;;;;;;;40.22;12.35;;;1.50;99.90;;;;;;4839905;29;20458;-65
2022/01/16 00:39:42;;;;;;;34.65;11.52;;;1.50;99.90;;;;;;4867232;29;20080;-65
2022/01/16 00:42:08;;;;;;;27.38;10.57;;;1.40;99.90;;;;;;4860694;29;20038;-66
2022/01/16 00:44:33;;;;;;;32.47;10.93;;;1.40;99.90;;;;;;4863024;29;20104;-67
2022/01/16 00:46:59;;;;;;;31.70;11.30;;;1.40;99.90;;;;;;4847906;29;20036;-65
2022/01/16 00:49:24;;;;;;;32.85;10.93;;;1.40;99.90;;;;;;4853730;29;20044;-66
2022/01/16 00:51:50;;;;;;;35.20;11.85;;;1.40;99.90;;;;;;4849684;29;20164;-66
2022/01/16 00:54:15;;;;;;;37.13;11.10;;;1.40;99.90;;;;;;4859009;29;20037;-64
2022/01/16 00:56:41;;;;;;;34.47;9.70;;;1.40;99.90;;;;;;4849580;29;20131;-65
2022/01/16 00:59:06;;;;;;;34.33;10.70;;;1.50;99.90;;;;;;4853291;29;20037;-65
2022/01/16 01:01:32;;;;;;;31.25;10.13;;;1.50;99.90;;;;;;4859358;29;20837;-65
2022/01/16 01:03:57;;;;;;;30.58;10.18;;;1.50;99.90;;;;;;4847437;29;20105;-65
2022/01/16 01:06:23;;;;;;;38.88;11.00;;;1.50;99.90;;;;;;4857222;29;20056;-65
2022/01/16 01:08:48;;;;;;;29.40;9.63;;;1.40;99.90;;;;;;4848836;29;20037;-65
2022/01/16 01:11:17;;;;;;;30.13;9.30;;;1.40;99.90;;;;;;4862624;29;20088;-66
2022/01/16 01:16:20;;;;;;;28.05;10.07;;;1.40;99.90;;;;;;4858126;29;20043;-65
2022/01/16 01:18:46;;;;;;;36.72;13.32;;;1.30;99.90;;;;;;4839196;29;20046;-65
2022/01/16 01:21:24;;;;;;;27.80;9.85;;;1.30;99.90;;;;;;4857920;29;20037;-65
2022/01/16 01:23:50;;;;;;;30.15;10.13;;;1.20;99.90;;;;;;4858615;29;20044;-64
2022/01/16 01:26:15;;;;;;;49.63;16.23;;;1.20;99.90;;;;;;4857986;29;20068;-65
2022/01/16 01:28:41;;;;;;;26.75;10.52;;;1.20;99.90;;;;;;4857994;29;20119;-65
2022/01/16 01:31:06;;;;;;;36.05;9.65;;;1.10;99.90;;;;;;4862807;29;20072;-65
2022/01/16 01:33:32;;;;;;;29.95;10.07;;;1.00;99.90;;;;;;4856328;29;20073;-65
2022/01/16 01:35:57;;;;;;;31.42;9.65;;;1.00;99.90;;;;;;4859712;29;20044;-65
2022/01/16 01:38:23;;;;;;;39.45;10.07;;;0.90;99.90;;;;;;4858424;29;20033;-65
2022/01/16 01:40:49;;;;;;;30.00;9.65;;;0.90;99.90;;;;;;4858710;29;20047;-65
2022/01/16 01:51:09;;;;;;;27.10;9.25;;;0.70;99.90;;;;;;4848147;29;20073;-65
2022/01/16 01:53:34;;;;;;;23.23;9.57;;;0.70;99.90;;;;;;4860392;29;20038;-64
2022/01/16 01:56:00;;;;;;;31.40;9.32;;;0.60;99.90;;;;;;4841765;29;20042;-65
2022/01/16 01:58:26;;;;;;;33.03;9.10;;;0.60;99.90;;;;;;4852621;29;20573;-65
2022/01/16 02:00:51;;;;;;;36.50;10.70;;;0.50;99.90;;;;;;4857982;29;20076;-65
2022/01/16 02:03:59;;;;;;;37.88;9.15;;;0.50;99.90;;;;;;4861459;29;20045;-65
2022/01/16 02:06:06;;;;;;;38.85;9.75;;;0.50;99.90;;;;;;4851607;29;20042;-65
2022/01/16 02:08:32;;;;;;;23.95;9.27;;;0.40;99.90;;;;;;4857320;29;20037;-65
2022/01/16 02:10:59;;;;;;;24.95;9.23;;;0.40;99.90;;;;;;4847801;29;20093;-65
2022/01/16 02:13:30;;;;;;;36.25;8.77;;;0.40;99.90;;;;;;4851846;29;20037;-65
2022/01/16 02:31:57;;;;;;;31.27;8.77;;;0.30;99.90;;;;;;4861563;29;20041;-65
2022/01/16 02:34:41;;;;;;;33.08;8.38;;;0.30;99.90;;;;;;4860637;29;20037;-65
2022/01/16 02:37:13;;;;;;;30.20;7.75;;;0.20;99.90;;;;;;4840841;29;20022;-71
2022/01/16 02:39:40;;;;;;;34.45;8.85;;;0.20;99.90;;;;;;4864255;29;20033;-71
2022/01/16 02:42:05;;;;;;;38.88;8.90;;;0.20;99.90;;;;;;4856342;29;20042;-70
2022/01/16 02:44:42;;;;;;;35.20;9.25;;;0.10;99.90;;;;;;4848961;29;20468;-71
2022/01/16 02:47:08;;;;;;;29.60;8.40;;;0.00;99.90;;;;;;4866965;29;20045;-70
2022/01/16 02:49:34;;;;;;;43.30;8.93;;;0.10;99.90;;;;;;4863746;29;20045;-70
2022/01/16 02:51:59;;;;;;;37.20;8.77;;;0.00;99.90;;;;;;4857456;29;20029;-71
2022/01/16 02:54:26;;;;;;;32.00;8.18;;;0.00;99.90;;;;;;4863290;29;20037;-70
2022/01/16 02:56:51;;;;;;;25.98;7.85;;;-0.10;99.90;;;;;;4860363;29;20045;-70
2022/01/16 02:59:21;;;;;;;40.63;9.75;;;-0.10;99.90;;;;;;4849187;29;20053;-70
2022/01/16 03:01:47;;;;;;;28.98;7.68;;;-0.10;99.90;;;;;;4865363;29;20148;-71
2022/01/16 03:04:12;;;;;;;24.75;7.10;;;-0.10;99.90;;;;;;4864530;29;20047;-71
2022/01/16 03:06:38;;;;;;;34.17;8.27;;;-0.10;99.90;;;;;;4864052;29;20780;-69
2022/01/16 03:09:06;;;;;;;38.70;9.23;;;-0.10;99.90;;;;;;4849074;29;20072;-70
2022/01/16 03:11:36;;;;;;;28.83;7.47;;;-0.10;99.90;;;;;;4858254;29;20048;-71
2022/01/16 03:14:01;;;;;;;30.55;7.00;;;-0.10;99.90;;;;;;4865353;29;20582;-71
2022/01/16 03:16:27;;;;;;;37.38;7.10;;;-0.10;99.90;;;;;;4867462;29;20148;-70
2022/01/16 03:21:55;;;;;;;39.10;7.20;;;-0.10;99.90;;;;;;4862750;29;20058;-70
2022/01/16 03:24:21;;;;;;;33.70;8.00;;;-0.20;99.90;;;;;;4863427;29;20044;-70
2022/01/16 03:26:46;;;;;;;28.05;7.47;;;-0.20;99.90;;;;;;4866904;29;20089;-70
2022/01/16 03:29:12;;;;;;;26.75;7.55;;;-0.20;99.90;;;;;;4865147;29;20052;-70
2022/01/16 03:31:37;;;;;;;25.33;8.15;;;-0.20;99.90;;;;;;4863379;29;20501;-70
2022/01/16 03:34:03;;;;;;;33.25;8.13;;;-0.20;99.90;;;;;;4858852;29;20033;-71
2022/01/16 03:36:28;;;;;;;42.30;8.43;;;-0.30;99.90;;;;;;4855226;29;20040;-71
2022/01/16 03:38:54;;;;;;;30.95;6.63;;;-0.20;99.90;;;;;;4862120;29;20550;-71
2022/01/16 03:41:19;;;;;;;31.52;7.70;;;-0.20;99.90;;;;;;4864352;29;20032;-71
2022/01/16 03:43:45;;;;;;;31.90;7.28;;;-0.10;99.90;;;;;;4862624;29;20366;-71
2022/01/16 03:46:10;;;;;;;33.50;7.93;;;-0.10;99.90;;;;;;4857275;29;20033;-70
2022/01/16 03:48:36;;;;;;;35.03;6.93;;;-0.10;99.90;;;;;;4858605;29;20044;-71
2022/01/16 03:51:01;;;;;;;31.00;7.55;;;-0.20;99.90;;;;;;4852778;29;20076;-71
2022/01/16 03:53:27;;;;;;;38.60;8.82;;;-0.10;99.90;;;;;;4860921;29;20037;-70
2022/01/16 03:55:52;;;;;;;25.85;7.43;;;-0.20;99.90;;;;;;4866505;29;20120;-70
2022/01/16 03:58:18;;;;;;;33.30;7.22;;;-0.20;99.90;;;;;;4860854;29;20036;-70
2022/01/16 04:00:44;;;;;;;25.67;6.80;;;-0.30;99.90;;;;;;4850639;29;20501;-71
2022/01/16 04:03:10;;;;;;;22.98;7.10;;;-0.30;99.90;;;;;;4856655;29;20136;-71
2022/01/16 04:05:35;;;;;;;34.50;6.85;;;-0.30;99.90;;;;;;4849394;29;20043;-71
2022/01/16 04:08:02;;;;;;;26.58;6.55;;;-0.30;99.90;;;;;;4865076;29;20033;-71
2022/01/16 04:10:27;;;;;;;33.78;7.78;;;-0.40;99.90;;;;;;4849763;29;20045;-71
2022/01/16 04:12:53;;;;;;;41.67;6.82;;;-0.40;99.90;;;;;;4857597;29;20033;-71
2022/01/16 04:17:45;;;;;;;31.20;7.47;;;-0.30;99.90;;;;;;4858369;29;20100;-70
2022/01/16 04:20:15;;;;;;;30.40;6.95;;;-0.40;99.90;;;;;;4838600;29;20029;-71
2022/01/16 04:22:41;;;;;;;26.83;6.93;;;-0.50;99.90;;;;;;4843654;29;20632;-70
2022/01/16 04:25:06;;;;;;;32.90;6.25;;;-0.50;99.90;;;;;;4862945;29;20033;-70
2022/01/16 04:27:32;;;;;;;23.77;5.80;;;-0.50;99.90;;;;;;4856502;29;20053;-70
2022/01/16 04:29:57;;;;;;;26.77;6.78;;;-0.50;99.90;;;;;;4857171;29;20107;-70
2022/01/16 04:32:23;;;;;;;28.08;6.88;;;-0.50;99.90;;;;;;4843914;29;20195;-71
2022/01/16 04:34:48;;;;;;;32.55;7.00;;;-0.50;99.90;;;;;;4855819;29;20029;-70
2022/01/16 04:37:13;;;;;;;29.55;6.47;;;-0.40;99.90;;;;;;4861280;29;20566;-71
2022/01/16 04:39:48;;;;;;;29.75;7.20;;;-0.40;99.90;;;;;;4852483;29;20035;-70
2022/01/16 04:44:58;;;;;;;38.30;7.90;;;-0.30;99.90;;;;;;4863608;29;20036;-70
2022/01/16 04:47:23;;;;;;;30.70;7.20;;;-0.40;99.90;;;;;;4860052;29;20064;-70
2022/01/16 04:49:49;;;;;;;32.92;7.13;;;-0.40;99.90;;;;;;4858683;29;20122;-70
2022/01/16 04:52:14;;;;;;;36.47;7.25;;;-0.40;99.90;;;;;;4862106;29;20147;-70
2022/01/16 04:54:40;;;;;;;40.95;10.00;;;-0.40;99.90;;;;;;4865070;29;20043;-70
2022/01/16 04:57:05;;;;;;;28.42;7.80;;;-0.40;99.90;;;;;;4854558;29;20038;-70
2022/01/16 04:59:31;;;;;;;29.70;7.55;;;-0.40;99.90;;;;;;4856354;29;20907;-70
2022/01/16 05:01:56;;;;;;;30.65;7.28;;;-0.40;99.90;;;;;;4856843;29;20037;-70
2022/01/16 05:04:22;;;;;;;32.92;8.02;;;-0.40;99.90;;;;;;4849240;29;20067;-70
2022/01/16 05:06:47;;;;;;;32.72;9.23;;;-0.30;99.90;;;;;;4852022;29;20037;-70
2022/01/16 05:09:13;;;;;;;38.85;9.15;;;-0.40;99.90;;;;;;4858367;29;20891;-70
2022/01/16 05:11:38;;;;;;;33.25;8.30;;;-0.40;99.90;;;;;;4856980;29;20093;-71
2022/01/16 05:16:37;;;;;;;34.90;9.38;;;-0.40;99.90;;;;;;4857688;29;20110;-70
2022/01/16 05:19:02;;;;;;;48.22;10.40;;;-0.50;99.90;;;;;;4860783;29;20033;-70
2022/01/16 05:21:28;;;;;;;41.22;11.23;;;-0.50;99.90;;;;;;4862070;29;20088;-70
2022/01/16 05:23:53;;;;;;;48.35;11.20;;;-0.50;99.90;;;;;;4861440;29;20907;-70
2022/01/16 05:26:24;;;;;;;36.05;9.55;;;-0.50;99.90;;;;;;4839515;29;20045;-70
2022/01/16 05:28:50;;;;;;;42.10;10.82;;;-0.50;99.90;;;;;;4846815;29;20047;-71
2022/01/16 05:31:15;;;;;;;32.85;9.95;;;-0.70;99.90;;;;;;4859180;29;20038;-70
2022/01/16 05:33:41;;;;;;;32.58;9.05;;;-0.70;99.90;;;;;;4850830;29;20523;-70
2022/01/16 05:36:06;;;;;;;44.25;9.70;;;-0.70;99.90;;;;;;4855554;29;20471;-71
2022/01/16 05:38:31;;;;;;;28.73;9.55;;;-0.70;99.90;;;;;;4859446;29;20041;-71
2022/01/16 05:40:57;;;;;;;42.75;10.32;;;-0.70;99.90;;;;;;4854820;29;20148;-71
2022/01/16 05:43:22;;;;;;;33.33;10.32;;;-0.80;99.90;;;;;;4849638;29;20067;-71
2022/01/16 05:45:48;;;;;;;37.05;9.23;;;-0.80;99.90;;;;;;4843204;29;20036;-71
2022/01/16 05:48:13;;;;;;;32.58;9.98;;;-0.80;99.90;;;;;;4861217;29;20124;-70
2022/01/16 05:50:39;;;;;;;45.70;11.75;;;-0.80;99.90;;;;;;4857285;29;20045;-70
2022/01/16 05:53:04;;;;;;;31.77;9.93;;;-0.80;99.90;;;;;;4857899;29;20032;-71
2022/01/16 05:55:40;;;;;;;34.08;9.85;;;-0.80;99.90;;;;;;4856287;29;20150;-70
2022/01/16 05:58:06;;;;;;;34.92;9.85;;;-0.90;99.90;;;;;;4850241;29;20094;-70
2022/01/16 06:00:31;;;;;;;33.58;10.88;;;-0.90;99.90;;;;;;4861780;29;20795;-71
2022/01/16 06:02:57;;;;;;;40.70;11.43;;;-0.90;99.90;;;;;;4848265;29;20075;-71
2022/01/16 06:05:22;;;;;;;29.00;10.27;;;-0.90;99.90;;;;;;4855606;29;20136;-71
2022/01/16 06:07:53;;;;;;;36.88;10.55;;;-0.90;99.90;;;;;;4855862;29;20430;-71
2022/01/16 06:10:19;;;;;;;36.58;10.98;;;-0.90;99.90;;;;;;4847276;29;20045;-70
2022/01/16 06:12:44;;;;;;;36.97;10.63;;;-0.90;99.90;;;;;;4865079;29;20036;-71
2022/01/16 06:15:10;;;;;;;43.55;11.70;;;-1.00;99.90;;;;;;4867178;29;20603;-71
2022/01/16 06:17:35;;;;;;;37.75;10.85;;;-1.00;99.90;;;;;;4862435;29;20039;-71
2022/01/16 06:20:01;;;;;;;42.70;12.13;;;-1.00;99.90;;;;;;4858604;29;20493;-71
2022/01/16 06:22:26;;;;;;;35.80;10.48;;;-1.00;99.90;;;;;;4861598;29;20033;-70
2022/01/16 06:24:52;;;;;;;37.97;10.60;;;-1.00;99.90;;;;;;4862811;29;20599;-71
2022/01/16 06:27:17;;;;;;;25.90;11.20;;;-1.10;99.90;;;;;;4862730;29;20041;-70
2022/01/16 06:29:43;;;;;;;38.95;10.73;;;-1.10;99.90;;;;;;4860160;29;20037;-70
2022/01/16 06:32:08;;;;;;;37.65;11.10;;;-1.10;99.90;;;;;;4843927;29;20048;-71
2022/01/16 06:34:34;;;;;;;40.25;11.48;;;-1.10;99.90;;;;;;4854018;29;20168;-70
2022/01/16 06:36:59;;;;;;;34.25;11.20;;;-1.10;99.90;;;;;;4858715;29;20028;-70
2022/01/16 06:39:25;;;;;;;39.67;11.00;;;-1.10;99.90;;;;;;4865442;29;20036;-70
2022/01/16 06:41:50;;;;;;;40.95;12.20;;;-1.20;99.90;;;;;;4862995;29;20097;-71
2022/01/16 06:44:16;;;;;;;35.30;10.38;;;-1.20;99.90;;;;;;4844614;29;20037;-70
2022/01/16 06:46:41;;;;;;;32.67;10.88;;;-1.20;99.90;;;;;;4862058;29;20526;-70
2022/01/16 06:49:07;;;;;;;45.08;12.63;;;-1.20;99.90;;;;;;4861645;29;20041;-70
2022/01/16 06:51:32;;;;;;;42.47;13.55;;;-1.20;99.90;;;;;;4858659;29;20109;-70
2022/01/16 06:53:59;;;;;;;46.92;12.55;;;-1.20;99.90;;;;;;4850021;29;20032;-70
2022/01/16 06:56:25;;;;;;;42.45;12.32;;;-1.20;99.90;;;;;;4867716;29;20041;-70
2022/01/16 06:58:50;;;;;;;43.80;11.90;;;-1.20;99.90;;;;;;4864409;29;20421;-70
2022/01/16 07:01:16;;;;;;;40.08;11.90;;;-1.20;99.90;;;;;;4865270;29;20051;-70
2022/01/16 07:03:41;;;;;;;40.80;13.05;;;-1.10;99.90;;;;;;4862712;29;20120;-70
2022/01/16 07:06:07;;;;;;;46.60;13.77;;;-1.00;99.90;;;;;;4847750;29;20529;-70
2022/01/16 07:08:32;;;;;;;38.95;13.95;;;-0.90;99.90;;;;;;4858440;29;20044;-70
2022/01/16 07:10:58;;;;;;;47.05;15.30;;;-0.80;99.90;;;;;;4861119;29;20037;-70
2022/01/16 07:13:23;;;;;;;43.72;14.23;;;-0.90;99.90;;;;;;4859963;29;20712;-70
2022/01/16 07:15:49;;;;;;;53.53;14.45;;;-0.80;99.90;;;;;;4865856;29;20117;-71
2022/01/16 07:18:14;;;;;;;43.95;14.43;;;-0.80;99.90;;;;;;4848807;29;20033;-70
2022/01/16 07:20:40;;;;;;;39.33;14.43;;;-0.90;99.90;;;;;;4862393;29;20136;-70
2022/01/16 07:23:05;;;;;;;50.42;14.63;;;-0.90;99.90;;;;;;4863737;29;20116;-70
2022/01/16 07:25:31;;;;;;;54.92;16.10;;;-0.90;99.90;;;;;;4866834;29;20139;-70
2022/01/16 07:27:56;;;;;;;60.22;18.73;;;-0.90;99.90;;;;;;4863986;29;20029;-70
2022/01/16 07:30:22;;;;;;;68.93;28.02;;;-0.80;99.90;;;;;;4868052;29;20041;-70
2022/01/16 07:32:47;;;;;;;153.82;82.72;;;-0.80;99.90;;;;;;4863383;29;20044;-70
2022/01/16 07:35:13;;;;;;;85.55;41.50;;;-0.80;99.90;;;;;;4867785;29;20096;-70
2022/01/16 07:37:38;;;;;;;118.00;61.10;;;-0.70;99.90;;;;;;4854362;29;20112;-70
2022/01/16 07:40:04;;;;;;;64.65;20.30;;;-0.70;99.90;;;;;;4864116;29;20699;-71
2022/01/16 07:42:29;;;;;;;57.25;18.60;;;-0.70;99.90;;;;;;4862619;29;20037;-70
2022/01/16 07:44:55;;;;;;;52.15;19.83;;;-0.70;99.90;;;;;;4851642;29;20112;-71
2022/01/16 07:47:20;;;;;;;55.63;19.92;;;-0.60;99.90;;;;;;4868789;29;20126;-70
2022/01/16 07:49:46;;;;;;;52.00;20.27;;;-0.40;99.90;;;;;;4858978;29;20037;-70
2022/01/16 07:52:11;;;;;;;46.33;18.67;;;-0.50;99.90;;;;;;4865828;29;20887;-71
2022/01/16 07:54:37;;;;;;;54.97;19.45;;;-0.60;99.90;;;;;;4840093;29;20045;-71
2022/01/16 07:57:04;;;;;;;44.22;18.70;;;-0.50;99.90;;;;;;4864163;29;20987;-71
2022/01/16 07:59:29;;;;;;;50.45;18.08;;;-0.50;99.90;;;;;;4861945;29;20390;-71
2022/01/16 08:01:55;;;;;;;53.38;18.52;;;-0.50;99.90;;;;;;4860852;29;20045;-70
2022/01/16 08:04:20;;;;;;;44.13;18.48;;;-0.50;99.90;;;;;;4861997;29;20172;-71
2022/01/16 08:06:46;;;;;;;47.55;18.70;;;-0.40;99.90;;;;;;4864915;29;20107;-71
2022/01/16 08:09:11;;;;;;;56.03;19.70;;;-0.40;99.90;;;;;;4862304;29;20037;-71
2022/01/16 08:11:37;;;;;;;42.85;19.42;;;-0.30;99.90;;;;;;4870913;29;20032;-71
2022/01/16 08:14:02;;;;;;;48.17;18.92;;;-0.30;99.90;;;;;;4861597;29;20040;-71
2022/01/16 08:16:28;;;;;;;41.00;17.45;;;-0.20;99.90;;;;;;4863455;29;20448;-71
2022/01/16 08:18:53;;;;;;;49.05;18.88;;;-0.20;99.90;;;;;;4863714;29;20057;-71
2022/01/16 08:21:19;;;;;;;45.75;18.40;;;-0.10;99.90;;;;;;4866800;29;20065;-70
2022/01/16 08:23:44;;;;;;;45.95;18.52;;;0.00;99.90;;;;;;4860377;29;20045;-71
2022/01/16 08:26:10;;;;;;;38.85;18.27;;;0.00;99.90;;;;;;4849255;29;20116;-71
2022/01/16 08:28:35;;;;;;;44.88;18.48;;;0.10;99.90;;;;;;4836891;29;20587;-71
2022/01/16 08:31:01;;;;;;;41.13;18.48;;;0.10;99.90;;;;;;4865797;29;20041;-71
2022/01/16 08:33:26;;;;;;;44.63;17.90;;;0.20;99.90;;;;;;4860099;29;20040;-71
2022/01/16 08:35:52;;;;;;;46.30;19.00;;;0.30;99.90;;;;;;4864822;29;20072;-70
2022/01/16 08:38:17;;;;;;;45.28;18.85;;;0.30;99.90;;;;;;4864776;29;20040;-70
2022/01/16 08:40:43;;;;;;;47.38;18.80;;;0.40;99.90;;;;;;4868949;29;20997;-71
2022/01/16 08:43:09;;;;;;;43.38;19.13;;;0.40;99.90;;;;;;4862457;29;20044;-71
2022/01/16 08:45:34;;;;;;;46.95;19.85;;;0.50;99.90;;;;;;4865073;29;20047;-69
2022/01/16 08:48:00;;;;;;;49.35;20.40;;;0.60;99.90;;;;;;4866821;29;20053;-69
2022/01/16 08:50:25;;;;;;;40.17;19.98;;;0.70;99.90;;;;;;4865263;29;20913;-71
2022/01/16 08:52:51;;;;;;;42.70;19.83;;;0.80;99.90;;;;;;4862248;29;20486;-71
2022/01/16 08:55:16;;;;;;;40.38;19.30;;;0.70;99.90;;;;;;4844765;29;20064;-70
2022/01/16 08:57:42;;;;;;;50.85;22.52;;;0.80;99.90;;;;;;4866788;29;20041;-74
2022/01/16 09:00:07;;;;;;;53.72;20.85;;;1.00;99.90;;;;;;4868736;29;20025;-74
2022/01/16 09:02:33;;;;;;;47.42;19.60;;;1.10;99.90;;;;;;4866112;29;20045;-73
2022/01/16 09:04:58;;;;;;;43.08;19.60;;;1.10;99.90;;;;;;4863182;29;20057;-73
2022/01/16 09:07:24;;;;;;;40.58;17.10;;;1.20;99.90;;;;;;4844251;29;20412;-73
2022/01/16 09:09:49;;;;;;;39.47;18.35;;;1.20;99.90;;;;;;4863401;29;20063;-75
2022/01/16 09:12:15;;;;;;;39.75;19.58;;;1.30;99.90;;;;;;4866053;29;20036;-75
2022/01/16 09:14:40;;;;;;;43.58;20.85;;;1.50;99.90;;;;;;4861350;29;20026;-69
2022/01/16 09:17:06;;;;;;;49.90;21.55;;;1.50;99.90;;;;;;4865634;29;20037;-69
2022/01/16 09:19:31;;;;;;;39.35;20.25;;;1.50;99.90;;;;;;4857927;29;20040;-70
2022/01/16 09:21:57;;;;;;;39.45;18.90;;;1.50;99.90;;;;;;4861490;29;20033;-70
2022/01/16 09:24:22;;;;;;;38.20;19.65;;;1.40;99.90;;;;;;4862181;29;20051;-69
2022/01/16 09:26:49;;;;;;;42.75;19.02;;;1.50;99.90;;;;;;4864691;29;20033;-69
2022/01/16 09:29:17;;;;;;;38.47;18.83;;;1.50;99.90;;;;;;4865008;29;20041;-70
2022/01/16 09:31:43;;;;;;;40.05;18.92;;;1.60;99.90;;;;;;4849721;29;20668;-70
2022/01/16 09:34:08;;;;;;;38.03;17.85;;;1.60;99.90;;;;;;4847865;29;20045;-70
2022/01/16 09:36:34;;;;;;;42.17;19.70;;;1.70;99.90;;;;;;4861467;29;20417;-70
2022/01/16 09:38:59;;;;;;;48.50;23.02;;;1.70;99.90;;;;;;4850882;29;20061;-70
2022/01/16 09:41:25;;;;;;;53.65;23.80;;;1.80;99.90;;;;;;4858360;29;20729;-70
2022/01/16 09:43:50;;;;;;;40.08;19.90;;;1.90;99.90;;;;;;4850308;29;20128;-70
2022/01/16 09:46:16;;;;;;;35.38;17.65;;;2.00;99.90;;;;;;4864330;29;20089;-70
2022/01/16 09:48:41;;;;;;;41.58;19.98;;;2.20;99.90;;;;;;4846609;29;20048;-69
2022/01/16 09:51:07;;;;;;;39.95;18.85;;;2.10;99.90;;;;;;4849839;29;20549;-70
2022/01/16 09:53:32;;;;;;;35.50;18.95;;;2.20;99.90;;;;;;4863704;29;20044;-70
2022/01/16 09:55:58;;;;;;;39.20;18.17;;;2.10;99.90;;;;;;4849654;29;20053;-70
2022/01/16 09:58:23;;;;;;;42.67;19.33;;;2.00;99.90;;;;;;4866647;29;20029;-70
2022/01/16 10:00:49;;;;;;;39.88;18.85;;;1.90;99.90;;;;;;4863564;29;20393;-70
2022/01/16 10:03:14;;;;;;;43.15;20.35;;;1.80;99.90;;;;;;4865561;29;20497;-70
2022/01/16 10:05:40;;;;;;;39.92;19.13;;;1.70;99.90;;;;;;4849144;29;20039;-70
2022/01/16 10:08:05;;;;;;;39.38;19.25;;;1.70;99.90;;;;;;4862260;29;20025;-70
2022/01/16 10:10:31;;;;;;;52.30;24.70;;;1.80;99.90;;;;;;4855825;29;20045;-70
2022/01/16 10:13:04;;;;;;;43.35;21.20;;;1.60;99.90;;;;;;4865111;29;20033;-69
2022/01/16 10:15:29;;;;;;;43.15;19.30;;;1.60;99.90;;;;;;4842655;29;20542;-70
2022/01/16 10:17:55;;;;;;;45.78;20.40;;;1.50;99.90;;;;;;4846482;29;20037;-70
2022/01/16 10:20:20;;;;;;;48.97;21.33;;;1.50;99.90;;;;;;4859670;29;20144;-70
2022/01/16 10:22:46;;;;;;;56.88;24.13;;;1.50;99.90;;;;;;4865597;29;20060;-70
2022/01/16 10:25:11;;;;;;;43.63;19.98;;;1.50;99.90;;;;;;4857200;29;20041;-68
2022/01/16 10:27:37;;;;;;;49.03;21.77;;;1.50;99.90;;;;;;4850843;29;20024;-68
2022/01/16 10:30:07;;;;;;;55.80;22.70;;;1.60;99.90;;;;;;4862293;29;20044;-69
2022/01/16 10:32:33;;;;;;;45.90;21.48;;;1.60;99.90;;;;;;4860433;29;20040;-69
2022/01/16 10:34:58;;;;;;;45.97;20.42;;;1.60;99.90;;;;;;4845786;29;20033;-68
2022/01/16 10:37:24;;;;;;;44.17;19.23;;;1.70;99.90;;;;;;4865457;29;20037;-70
2022/01/16 10:39:49;;;;;;;45.10;19.73;;;1.70;99.90;;;;;;4863481;29;20112;-70
2022/01/16 10:42:15;;;;;;;45.92;20.98;;;1.70;99.90;;;;;;4866054;29;20064;-69
2022/01/16 10:44:40;;;;;;;49.72;21.40;;;1.80;99.90;;;;;;4865436;29;20572;-70
2022/01/16 10:47:06;;;;;;;43.65;20.00;;;1.80;99.90;;;;;;4833069;29;20036;-70
2022/01/16 10:49:31;;;;;;;41.53;18.98;;;1.80;99.90;;;;;;4855587;29;20041;-70
2022/01/16 10:51:57;;;;;;;47.92;22.00;;;1.90;99.90;;;;;;4846303;29;20052;-70
2022/01/16 10:54:22;;;;;;;43.75;19.45;;;1.90;99.90;;;;;;4864236;29;20036;-69
2022/01/16 10:56:48;;;;;;;49.08;21.88;;;2.00;99.90;;;;;;4836835;29;20029;-69
2022/01/16 10:59:13;;;;;;;45.10;21.20;;;2.00;99.90;;;;;;4864574;29;20401;-69
2022/01/16 11:01:39;;;;;;;40.15;19.67;;;2.10;99.90;;;;;;4867865;29;20028;-70
2022/01/16 11:04:04;;;;;;;36.25;18.05;;;2.10;99.90;;;;;;4865169;29;20618;-69
2022/01/16 11:06:30;;;;;;;39.33;19.20;;;2.00;99.90;;;;;;4851799;29;20029;-69
2022/01/16 11:09:02;;;;;;;36.00;18.65;;;2.10;99.90;;;;;;4847874;29;20923;-68
2022/01/16 11:11:28;;;;;;;37.08;18.52;;;2.10;99.90;;;;;;4870096;29;20068;-69
2022/01/16 11:14:00;;;;;;;37.80;19.08;;;2.10;99.90;;;;;;4865949;29;20104;-65
2022/01/16 11:16:26;;;;;;;42.45;20.52;;;2.10;99.90;;;;;;4868823;29;20153;-64
2022/01/16 11:18:51;;;;;;;44.20;20.02;;;2.10;99.90;;;;;;4863265;29;20025;-64
2022/01/16 11:21:31;;;;;;;38.20;19.50;;;2.20;99.90;;;;;;4871521;29;20041;-65
2022/01/16 11:24:26;;;;;;;38.78;19.17;;;2.10;99.90;;;;;;4858438;29;20432;-65
2022/01/16 11:26:51;;;;;;;38.58;19.77;;;2.10;99.90;;;;;;4866222;29;20052;-65
2022/01/16 11:29:17;;;;;;;42.05;19.75;;;2.20;99.90;;;;;;4861773;29;20041;-67
2022/01/16 11:31:43;;;;;;;42.15;20.20;;;2.20;99.90;;;;;;4863611;29;20029;-65
2022/01/16 11:34:09;;;;;;;39.50;19.55;;;2.20;99.90;;;;;;4863183;29;20052;-65
2022/01/16 11:36:34;;;;;;;37.90;19.40;;;2.20;99.90;;;;;;4867824;29;20835;-65
2022/01/16 11:39:00;;;;;;;42.92;18.65;;;2.20;99.90;;;;;;4865521;29;20097;-65
2022/01/16 11:41:31;;;;;;;43.65;21.23;;;2.30;99.90;;;;;;4869278;29;20489;-65
2022/01/16 11:43:56;;;;;;;41.50;19.23;;;2.30;99.90;;;;;;4850925;29;20132;-65
2022/01/16 11:46:22;;;;;;;38.10;18.85;;;2.30;99.90;;;;;;4868208;29;20044;-65
2022/01/16 11:48:49;;;;;;;47.65;21.20;;;2.40;99.90;;;;;;4867695;29;20064;-65
2022/01/16 11:51:15;;;;;;;41.65;19.30;;;2.40;99.90;;;;;;4865881;29;20077;-65
2022/01/16 11:53:40;;;;;;;37.28;19.25;;;2.50;99.90;;;;;;4863212;29;20037;-65
2022/01/16 11:56:05;;;;;;;34.40;18.02;;;2.50;99.90;;;;;;4866348;29;20807;-65
2022/01/16 11:58:31;;;;;;;39.47;18.88;;;2.50;99.90;;;;;;4865221;29;20115;-65
2022/01/16 12:00:57;;;;;;;35.25;17.92;;;2.60;99.90;;;;;;4846681;29;20033;-65
2022/01/16 12:03:22;;;;;;;40.13;19.35;;;2.60;99.90;;;;;;4861308;29;20088;-65
2022/01/16 12:05:50;;;;;;;39.63;18.80;;;2.60;99.90;;;;;;4871420;29;20025;-65
2022/01/16 12:08:20;;;;;;;39.55;17.83;;;2.60;99.90;;;;;;4860726;29;20475;-65
2022/01/16 12:10:46;;;;;;;36.53;18.38;;;2.60;99.90;;;;;;4867887;29;20493;-65
2022/01/16 12:13:14;;;;;;;43.20;19.60;;;2.60;99.90;;;;;;4869006;29;20041;-66
2022/01/16 12:15:40;;;;;;;42.78;19.00;;;2.60;99.90;;;;;;4850895;29;20029;-65
2022/01/16 12:18:06;;;;;;;40.10;18.10;;;2.70;99.90;;;;;;4851907;29;20033;-68
2022/01/16 12:20:31;;;;;;;42.15;18.48;;;2.70;99.90;;;;;;4866355;29;20413;-68
2022/01/16 12:22:57;;;;;;;43.72;18.70;;;2.80;99.90;;;;;;4863058;29;20494;-70
2022/01/16 12:25:22;;;;;;;46.83;19.55;;;2.80;99.90;;;;;;4849852;29;20435;-69
2022/01/16 12:27:48;;;;;;;43.40;19.10;;;2.80;99.90;;;;;;4865904;29;20105;-69
2022/01/16 12:30:13;;;;;;;36.95;17.08;;;2.80;99.90;;;;;;4849254;29;20138;-69
2022/01/16 12:32:39;;;;;;;36.85;18.30;;;2.80;99.90;;;;;;4854026;29;20080;-68
2022/01/16 12:35:04;;;;;;;39.83;18.40;;;2.80;99.90;;;;;;4863656;29;20037;-69
2022/01/16 12:37:30;;;;;;;40.90;19.00;;;2.80;99.90;;;;;;4864649;29;20787;-69
2022/01/16 12:39:55;;;;;;;42.13;17.88;;;2.90;99.90;;;;;;4854205;29;20029;-69
2022/01/16 12:42:22;;;;;;;41.05;18.27;;;2.90;99.90;;;;;;4858024;29;20508;-69
2022/01/16 12:44:47;;;;;;;40.42;17.27;;;2.90;99.90;;;;;;4860423;29;20605;-68
2022/01/16 12:47:12;;;;;;;36.50;18.85;;;2.90;99.90;;;;;;4864760;29;20029;-68
2022/01/16 12:49:38;;;;;;;39.75;17.85;;;2.90;99.90;;;;;;4860617;29;20037;-69
2022/01/16 12:52:03;;;;;;;40.40;17.95;;;2.90;99.90;;;;;;4849659;29;20061;-69
2022/01/16 12:54:32;;;;;;;39.15;18.75;;;3.00;99.90;;;;;;4862228;29;20281;-68
2022/01/16 12:56:57;;;;;;;39.55;18.27;;;3.00;99.90;;;;;;4859698;29;20033;-68
2022/01/16 12:59:23;;;;;;;39.85;19.13;;;3.00;99.90;;;;;;4863351;29;20025;-68
2022/01/16 13:01:49;;;;;;;39.65;18.80;;;3.00;99.90;;;;;;4851457;29;20036;-69
2022/01/16 13:04:14;;;;;;;38.83;18.20;;;3.00;99.90;;;;;;4846957;29;20128;-68
2022/01/16 13:06:40;;;;;;;40.65;19.33;;;3.00;99.90;;;;;;4861302;29;20119;-69
2022/01/16 13:09:05;;;;;;;42.75;18.95;;;3.00;99.90;;;;;;4856328;29;20033;-69